PWSweather.com
Personal Weather Stations
Station Observations
KWIPARKF
Flambeau River State Forest, Park Falls, WI 54552

Flambeau River State ForestPark Falls, WI 54552

Lat: 45.81943, Lon: -90.61676

Elevation: 1476

Station Type: Davis Vantage Pro2 Plus

www.flambeauforestweather.com

High Low Average
Temperature 32.6°F0.3°C 9.2°F-12.7°C 23.2°F-4.9°C
Dew Point 20.9°F-6.2°C 4.0°F-15.6°C 13.5°F-10.3°C
Winds 5.8 mph 9.3 kmh Calm Calm Calm WSWCalm WSW
Wind Gusts 11.5 mph18.5 kmh -- 1.0 mph1.6 kmh
Humidity 93% 38% 68%
Pressure 30.23 in1023.7 mb 29.95 in1014.2 mb -
Precipitation 0.00 in0.0 mm - -
Hour Temp Dew Point Humidity Winds Wind Gusts Pressure Precip Precip Rate Daily Precip Total
12:00 AM 22.9°F-5.1°C 18.8°F-7.3°C 84% Calm Calm -- 29.95 in1014.2 mb - 0.00 in0.0 mm 0.00 in0.0 mm
12:10 AM 22.5°F-5.3°C 18.4°F-7.6°C 84% Calm Calm -- 29.95 in1014.2 mb - 0.00 in0.0 mm 0.00 in0.0 mm
12:20 AM 22.2°F-5.4°C 18.1°F-7.7°C 84% Calm Calm -- 29.95 in1014.2 mb - 0.00 in0.0 mm 0.00 in0.0 mm
12:30 AM 21.8°F-5.7°C 17.7°F-7.9°C 84% Calm Calm -- 29.95 in1014.2 mb - 0.00 in0.0 mm 0.00 in0.0 mm
12:40 AM 21.4°F-5.9°C 17.3°F-8.2°C 84% Calm Calm -- 29.95 in1014.2 mb - 0.00 in0.0 mm 0.00 in0.0 mm
12:50 AM 21.1°F-6.1°C 17.3°F-8.2°C 85% Calm Calm -- 29.95 in1014.2 mb - 0.00 in0.0 mm 0.00 in0.0 mm
01:00 AM 20.8°F-6.2°C 17.2°F-8.2°C 86% Calm Calm -- 29.95 in1014.2 mb - 0.00 in0.0 mm 0.00 in0.0 mm
01:10 AM 20.4°F-6.4°C 16.9°F-8.4°C 86% Calm Calm -- 29.95 in1014.2 mb - 0.00 in0.0 mm 0.00 in0.0 mm
01:20 AM 20.2°F-6.6°C 16.9°F-8.4°C 87% Calm Calm -- 29.95 in1014.2 mb - 0.00 in0.0 mm 0.00 in0.0 mm
01:30 AM 19.9°F-6.7°C 16.7°F-8.5°C 87% Calm Calm -- 29.96 in1014.6 mb - 0.00 in0.0 mm 0.00 in0.0 mm
01:40 AM 19.8°F-6.8°C 16.8°F-8.4°C 88% Calm Calm -- 29.96 in1014.6 mb - 0.00 in0.0 mm 0.00 in0.0 mm
01:50 AM 19.7°F-6.8°C 17.0°F-8.3°C 89% Calm Calm -- 29.96 in1014.6 mb - 0.00 in0.0 mm 0.00 in0.0 mm
02:00 AM 19.7°F-6.8°C 17.0°F-8.3°C 89% Calm Calm -- 29.95 in1014.2 mb - 0.00 in0.0 mm 0.00 in0.0 mm
02:10 AM 19.7°F-6.8°C 17.3°F-8.2°C 90% Calm Calm -- 29.95 in1014.2 mb - 0.00 in0.0 mm 0.00 in0.0 mm
02:20 AM 20.1°F-6.6°C 17.9°F-7.8°C 91% Calm Calm -- 29.95 in1014.2 mb - 0.00 in0.0 mm 0.00 in0.0 mm
02:30 AM 20.6°F-6.3°C 18.6°F-7.4°C 92% Calm Calm -- 29.95 in1014.2 mb - 0.00 in0.0 mm 0.00 in0.0 mm
02:40 AM 21.2°F-6.0°C 19.5°F-6.9°C 93% Calm Calm -- 29.95 in1014.2 mb - 0.00 in0.0 mm 0.00 in0.0 mm
02:50 AM 21.8°F-5.7°C 20.1°F-6.6°C 93% Calm Calm -- 29.95 in1014.2 mb - 0.00 in0.0 mm 0.00 in0.0 mm
03:00 AM 22.2°F-5.4°C 20.5°F-6.4°C 93% Calm Calm -- 29.95 in1014.2 mb - 0.00 in0.0 mm 0.00 in0.0 mm
03:10 AM 22.6°F-5.2°C 20.9°F-6.2°C 93% Calm Calm 1.2 mph1.9 kmh 29.95 in1014.2 mb - 0.00 in0.0 mm 0.00 in0.0 mm
03:20 AM 22.9°F-5.1°C 20.9°F-6.2°C 92% Calm Calm -- 29.95 in1014.2 mb - 0.00 in0.0 mm 0.00 in0.0 mm
03:30 AM 22.9°F-5.1°C 20.4°F-6.4°C 90% Calm Calm -- 29.95 in1014.2 mb - 0.00 in0.0 mm 0.00 in0.0 mm
03:40 AM 23.0°F-5.0°C 20.2°F-6.6°C 89% Calm Calm -- 29.95 in1014.2 mb - 0.00 in0.0 mm 0.00 in0.0 mm
03:50 AM 22.9°F-5.1°C 19.9°F-6.7°C 88% Calm Calm -- 29.95 in1014.2 mb - 0.00 in0.0 mm 0.00 in0.0 mm
04:00 AM 22.8°F-5.1°C 19.8°F-6.8°C 88% Calm Calm -- 29.95 in1014.2 mb - 0.00 in0.0 mm 0.00 in0.0 mm
04:10 AM 22.6°F-5.2°C 19.6°F-6.9°C 88% Calm Calm -- 29.96 in1014.6 mb - 0.00 in0.0 mm 0.00 in0.0 mm
04:20 AM 22.5°F-5.3°C 19.5°F-6.9°C 88% Calm Calm -- 29.96 in1014.6 mb - 0.00 in0.0 mm 0.00 in0.0 mm
04:30 AM 22.4°F-5.3°C 19.4°F-7.0°C 88% Calm Calm -- 29.96 in1014.6 mb - 0.00 in0.0 mm 0.00 in0.0 mm
04:40 AM 22.5°F-5.3°C 19.5°F-6.9°C 88% Calm Calm -- 29.96 in1014.6 mb - 0.00 in0.0 mm 0.00 in0.0 mm
04:50 AM 22.7°F-5.2°C 19.7°F-6.8°C 88% Calm Calm -- 29.96 in1014.6 mb - 0.00 in0.0 mm 0.00 in0.0 mm
05:00 AM 22.9°F-5.1°C 19.6°F-6.9°C 87% 1.2 mph NNW1.9 kmh NNW 8.1 mph13.0 kmh 29.96 in1014.6 mb - 0.00 in0.0 mm 0.00 in0.0 mm
05:10 AM 23.1°F-4.9°C 19.8°F-6.8°C 87% Calm Calm -- 29.96 in1014.6 mb - 0.00 in0.0 mm 0.00 in0.0 mm
05:20 AM 23.3°F-4.8°C 19.7°F-6.8°C 86% Calm Calm -- 29.96 in1014.6 mb - 0.00 in0.0 mm 0.00 in0.0 mm
05:30 AM 23.5°F-4.7°C 19.7°F-6.8°C 85% Calm Calm -- 29.97 in1014.9 mb - 0.00 in0.0 mm 0.00 in0.0 mm
05:40 AM 23.6°F-4.7°C 19.5°F-6.9°C 84% Calm Calm -- 29.97 in1014.9 mb - 0.00 in0.0 mm 0.00 in0.0 mm
05:50 AM 23.7°F-4.6°C 19.6°F-6.9°C 84% Calm Calm 5.8 mph9.3 kmh 29.98 in1015.2 mb - 0.00 in0.0 mm 0.00 in0.0 mm
06:00 AM 23.6°F-4.7°C 19.2°F-7.1°C 83% Calm Calm 3.5 mph5.6 kmh 29.98 in1015.2 mb - 0.00 in0.0 mm 0.00 in0.0 mm
06:10 AM 23.4°F-4.8°C 19.0°F-7.2°C 83% Calm Calm 1.2 mph1.9 kmh 29.98 in1015.2 mb - 0.00 in0.0 mm 0.00 in0.0 mm
06:20 AM 23.2°F-4.9°C 18.8°F-7.3°C 83% Calm Calm 3.5 mph5.6 kmh 29.99 in1015.6 mb - 0.00 in0.0 mm 0.00 in0.0 mm
06:30 AM 23.0°F-5.0°C 18.6°F-7.4°C 83% Calm Calm 1.2 mph1.9 kmh 29.99 in1015.6 mb - 0.00 in0.0 mm 0.00 in0.0 mm
06:40 AM 22.8°F-5.1°C 18.2°F-7.7°C 82% 3.5 mph N5.6 kmh N 3.5 mph5.6 kmh 30.00 in1015.9 mb - 0.00 in0.0 mm 0.00 in0.0 mm
06:50 AM 22.6°F-5.2°C 18.0°F-7.8°C 82% Calm Calm 1.2 mph1.9 kmh 30.00 in1015.9 mb - 0.00 in0.0 mm 0.00 in0.0 mm
07:00 AM 22.4°F-5.3°C 17.5°F-8.1°C 81% 3.5 mph NW5.6 kmh NW 11.5 mph18.5 kmh 30.00 in1015.9 mb - 0.00 in0.0 mm 0.00 in0.0 mm
07:10 AM 22.1°F-5.5°C 17.2°F-8.2°C 81% Calm Calm -- 30.00 in1015.9 mb - 0.00 in0.0 mm 0.00 in0.0 mm
07:20 AM 22.1°F-5.5°C 17.1°F-8.3°C 81% Calm Calm 2.3 mph3.7 kmh 30.01 in1016.3 mb - 0.00 in0.0 mm 0.00 in0.0 mm
07:30 AM 22.0°F-5.6°C 16.8°F-8.4°C 80% Calm Calm 3.5 mph5.6 kmh 30.01 in1016.3 mb - 0.00 in0.0 mm 0.00 in0.0 mm
07:40 AM 21.8°F-5.7°C 16.6°F-8.6°C 80% Calm Calm -- 30.01 in1016.3 mb - 0.00 in0.0 mm 0.00 in0.0 mm
07:50 AM 21.7°F-5.7°C 16.5°F-8.6°C 80% Calm Calm -- 30.02 in1016.6 mb - 0.00 in0.0 mm 0.00 in0.0 mm
08:00 AM 22.0°F-5.6°C 16.5°F-8.6°C 79% Calm Calm -- 30.02 in1016.6 mb - 0.00 in0.0 mm 0.00 in0.0 mm
08:10 AM 22.2°F-5.4°C 16.1°F-8.8°C 77% Calm Calm 1.2 mph1.9 kmh 30.02 in1016.6 mb - 0.00 in0.0 mm 0.00 in0.0 mm
08:20 AM 21.8°F-5.7°C 15.4°F-9.2°C 76% Calm Calm 1.2 mph1.9 kmh 30.03 in1016.9 mb - 0.00 in0.0 mm 0.00 in0.0 mm
08:30 AM 21.4°F-5.9°C 15.0°F-9.4°C 76% Calm Calm 1.2 mph1.9 kmh 30.03 in1016.9 mb - 0.00 in0.0 mm 0.00 in0.0 mm
08:40 AM 21.6°F-5.8°C 14.9°F-9.5°C 75% Calm Calm -- 30.03 in1016.9 mb - 0.00 in0.0 mm 0.00 in0.0 mm
08:50 AM 22.0°F-5.6°C 14.7°F-9.6°C 73% Calm Calm -- 30.04 in1017.3 mb - 0.00 in0.0 mm 0.00 in0.0 mm
09:00 AM 22.2°F-5.4°C 14.6°F-9.7°C 72% Calm Calm -- 30.04 in1017.3 mb - 0.00 in0.0 mm 0.00 in0.0 mm
09:10 AM 22.7°F-5.2°C 14.4°F-9.8°C 70% Calm Calm -- 30.05 in1017.6 mb - 0.00 in0.0 mm 0.00 in0.0 mm
09:20 AM 23.4°F-4.8°C 15.4°F-9.2°C 71% 1.2 mph N1.9 kmh N 11.5 mph18.5 kmh 30.05 in1017.6 mb - 0.00 in0.0 mm 0.00 in0.0 mm
09:30 AM 23.6°F-4.7°C 14.9°F-9.5°C 69% 1.2 mph NW1.9 kmh NW 4.6 mph7.4 kmh 30.05 in1017.6 mb - 0.00 in0.0 mm 0.00 in0.0 mm
09:40 AM 23.7°F-4.6°C 14.7°F-9.6°C 68% Calm Calm 3.5 mph5.6 kmh 30.05 in1017.6 mb - 0.00 in0.0 mm 0.00 in0.0 mm
09:50 AM 24.2°F-4.3°C 13.8°F-10.1°C 64% 5.8 mph NNW9.3 kmh NNW 11.5 mph18.5 kmh 30.05 in1017.6 mb - 0.00 in0.0 mm 0.00 in0.0 mm
10:00 AM 24.3°F-4.3°C 13.9°F-10.1°C 64% Calm Calm -- 30.05 in1017.6 mb - 0.00 in0.0 mm 0.00 in0.0 mm
10:10 AM 25.1°F-3.8°C 14.6°F-9.7°C 64% Calm Calm -- 30.05 in1017.6 mb - 0.00 in0.0 mm 0.00 in0.0 mm
10:20 AM 25.7°F-3.5°C 14.8°F-9.6°C 63% Calm Calm 1.2 mph1.9 kmh 30.05 in1017.6 mb - 0.00 in0.0 mm 0.00 in0.0 mm
10:30 AM 25.7°F-3.5°C 13.4°F-10.3°C 59% Calm Calm 4.6 mph7.4 kmh 30.05 in1017.6 mb - 0.00 in0.0 mm 0.00 in0.0 mm
10:40 AM 26.8°F-2.9°C 15.5°F-9.2°C 62% Calm Calm -- 30.06 in1017.9 mb - 0.00 in0.0 mm 0.00 in0.0 mm
10:50 AM 27.3°F-2.6°C 14.8°F-9.6°C 59% Calm Calm 2.3 mph3.7 kmh 30.06 in1017.9 mb - 0.00 in0.0 mm 0.00 in0.0 mm
11:00 AM 27.5°F-2.5°C 14.6°F-9.7°C 58% Calm Calm 1.2 mph1.9 kmh 30.06 in1017.9 mb - 0.00 in0.0 mm 0.00 in0.0 mm
11:10 AM 28.0°F-2.2°C 14.7°F-9.6°C 57% Calm Calm -- 30.06 in1017.9 mb - 0.00 in0.0 mm 0.00 in0.0 mm
11:20 AM 28.3°F-2.1°C 15.0°F-9.4°C 57% Calm Calm 4.6 mph7.4 kmh 30.07 in1018.3 mb - 0.00 in0.0 mm 0.00 in0.0 mm
11:30 AM 29.4°F-1.4°C 15.6°F-9.1°C 56% Calm Calm 2.3 mph3.7 kmh 30.07 in1018.3 mb - 0.00 in0.0 mm 0.00 in0.0 mm
11:40 AM 30.2°F-1.0°C 15.1°F-9.4°C 53% Calm Calm -- 30.07 in1018.3 mb - 0.00 in0.0 mm 0.00 in0.0 mm
11:50 AM 28.9°F-1.7°C 14.3°F-9.8°C 54% 4.6 mph NW7.4 kmh NW 9.2 mph14.8 kmh 30.07 in1018.3 mb - 0.00 in0.0 mm 0.00 in0.0 mm
12:00 PM 30.3°F-0.9°C 15.6°F-9.1°C 54% Calm Calm -- 30.08 in1018.6 mb - 0.00 in0.0 mm 0.00 in0.0 mm
12:10 PM 29.6°F-1.3°C 12.8°F-10.7°C 49% Calm Calm -- 30.07 in1018.3 mb - 0.00 in0.0 mm 0.00 in0.0 mm
12:20 PM 29.8°F-1.2°C 13.4°F-10.3°C 50% Calm Calm -- 30.07 in1018.3 mb - 0.00 in0.0 mm 0.00 in0.0 mm
12:30 PM 29.5°F-1.4°C 12.7°F-10.7°C 49% 2.3 mph NNW3.7 kmh NNW 9.2 mph14.8 kmh 30.07 in1018.3 mb - 0.00 in0.0 mm 0.00 in0.0 mm
12:40 PM 29.8°F-1.2°C 12.9°F-10.6°C 49% Calm Calm 3.5 mph5.6 kmh 30.07 in1018.3 mb - 0.00 in0.0 mm 0.00 in0.0 mm
12:50 PM 30.6°F-0.8°C 13.7°F-10.2°C 49% Calm Calm -- 30.07 in1018.3 mb - 0.00 in0.0 mm 0.00 in0.0 mm
01:00 PM 30.6°F-0.8°C 13.6°F-10.2°C 49% Calm Calm -- 30.07 in1018.3 mb - 0.00 in0.0 mm 0.00 in0.0 mm
01:10 PM 30.4°F-0.9°C 11.0°F-11.7°C 44% 1.2 mph NW1.9 kmh NW 3.5 mph5.6 kmh 30.07 in1018.3 mb - 0.00 in0.0 mm 0.00 in0.0 mm
01:20 PM 30.7°F-0.7°C 11.3°F-11.5°C 44% Calm Calm -- 30.07 in1018.3 mb - 0.00 in0.0 mm 0.00 in0.0 mm
01:30 PM 32.1°F0.1°C 11.0°F-11.7°C 41% Calm Calm -- 30.07 in1018.3 mb - 0.00 in0.0 mm 0.00 in0.0 mm
01:40 PM 32.1°F0.1°C 12.1°F-11.1°C 43% Calm Calm 2.3 mph3.7 kmh 30.07 in1018.3 mb - 0.00 in0.0 mm 0.00 in0.0 mm
01:50 PM 31.2°F-0.4°C 10.7°F-11.8°C 42% Calm Calm -- 30.07 in1018.3 mb - 0.00 in0.0 mm 0.00 in0.0 mm
02:00 PM 31.8°F-0.1°C 10.2°F-12.1°C 40% Calm Calm 2.3 mph3.7 kmh 30.07 in1018.3 mb - 0.00 in0.0 mm 0.00 in0.0 mm
02:10 PM 32.0°F0.0°C 10.9°F-11.7°C 41% Calm Calm 3.5 mph5.6 kmh 30.07 in1018.3 mb - 0.00 in0.0 mm 0.00 in0.0 mm
02:20 PM 31.7°F-0.2°C 8.9°F-12.8°C 38% Calm Calm -- 30.07 in1018.3 mb - 0.00 in0.0 mm 0.00 in0.0 mm
02:30 PM 32.3°F0.2°C 10.7°F-11.8°C 40% Calm Calm 3.5 mph5.6 kmh 30.08 in1018.6 mb - 0.00 in0.0 mm 0.00 in0.0 mm
02:40 PM 32.6°F0.3°C 12.5°F-10.8°C 43% Calm Calm 1.2 mph1.9 kmh 30.08 in1018.6 mb - 0.00 in0.0 mm 0.00 in0.0 mm
02:50 PM 31.7°F-0.2°C 10.1°F-12.2°C 40% 1.2 mph NNW1.9 kmh NNW 5.8 mph9.3 kmh 30.07 in1018.3 mb - 0.00 in0.0 mm 0.00 in0.0 mm
03:00 PM 32.6°F0.3°C 11.5°F-11.4°C 41% Calm Calm 1.2 mph1.9 kmh 30.08 in1018.6 mb - 0.00 in0.0 mm 0.00 in0.0 mm
03:10 PM 32.6°F0.3°C 12.6°F-10.8°C 43% Calm Calm 4.6 mph7.4 kmh 30.08 in1018.6 mb - 0.00 in0.0 mm 0.00 in0.0 mm
03:20 PM 31.7°F-0.2°C 11.7°F-11.3°C 43% Calm Calm 3.5 mph5.6 kmh 30.08 in1018.6 mb - 0.00 in0.0 mm 0.00 in0.0 mm
03:30 PM 31.5°F-0.3°C 10.5°F-11.9°C 41% 4.6 mph NW7.4 kmh NW 10.4 mph16.7 kmh 30.08 in1018.6 mb - 0.00 in0.0 mm 0.00 in0.0 mm
03:40 PM 31.0°F-0.6°C 10.0°F-12.2°C 41% Calm Calm -- 30.08 in1018.6 mb - 0.00 in0.0 mm 0.00 in0.0 mm
03:50 PM 30.9°F-0.6°C 11.0°F-11.7°C 43% 1.2 mph NW1.9 kmh NW -- 30.08 in1018.6 mb - 0.00 in0.0 mm 0.00 in0.0 mm
04:00 PM 31.2°F-0.4°C 11.8°F-11.2°C 44% Calm Calm -- 30.09 in1019.0 mb - 0.00 in0.0 mm 0.00 in0.0 mm
04:10 PM 30.8°F-0.7°C 9.8°F-12.3°C 41% Calm Calm -- 30.09 in1019.0 mb - 0.00 in0.0 mm 0.00 in0.0 mm
04:20 PM 30.7°F-0.7°C 10.3°F-12.1°C 42% 4.6 mph NW7.4 kmh NW 8.1 mph13.0 kmh 30.10 in1019.3 mb - 0.00 in0.0 mm 0.00 in0.0 mm
04:30 PM 30.1°F-1.1°C 9.2°F-12.7°C 41% Calm Calm -- 30.10 in1019.3 mb - 0.00 in0.0 mm 0.00 in0.0 mm
04:40 PM 30.3°F-0.9°C 11.5°F-11.4°C 45% Calm Calm -- 30.11 in1019.6 mb - 0.00 in0.0 mm 0.00 in0.0 mm
04:50 PM 29.9°F-1.2°C 9.6°F-12.4°C 42% 1.2 mph NW1.9 kmh NW 8.1 mph13.0 kmh 30.11 in1019.6 mb - 0.00 in0.0 mm 0.00 in0.0 mm
05:00 PM 29.6°F-1.3°C 9.8°F-12.3°C 43% Calm Calm -- 30.11 in1019.6 mb - 0.00 in0.0 mm 0.00 in0.0 mm
05:10 PM 29.2°F-1.6°C 10.4°F-12.0°C 45% Calm Calm -- 30.12 in1020.0 mb - 0.00 in0.0 mm 0.00 in0.0 mm
05:20 PM 28.5°F-1.9°C 9.3°F-12.6°C 44% Calm Calm 9.2 mph14.8 kmh 30.12 in1020.0 mb - 0.00 in0.0 mm 0.00 in0.0 mm
05:30 PM 27.8°F-2.3°C 10.6°F-11.9°C 48% Calm Calm -- 30.13 in1020.3 mb - 0.00 in0.0 mm 0.00 in0.0 mm
05:40 PM 27.1°F-2.7°C 12.2°F-11.0°C 53% Calm Calm -- 30.13 in1020.3 mb - 0.00 in0.0 mm 0.00 in0.0 mm
05:50 PM 26.7°F-2.9°C 12.3°F-10.9°C 54% Calm Calm -- 30.14 in1020.7 mb - 0.00 in0.0 mm 0.00 in0.0 mm
06:00 PM 25.9°F-3.4°C 11.1°F-11.6°C 53% Calm Calm -- 30.14 in1020.7 mb - 0.00 in0.0 mm 0.00 in0.0 mm
06:10 PM 25.3°F-3.7°C 10.1°F-12.2°C 52% Calm Calm -- 30.15 in1021.0 mb - 0.00 in0.0 mm 0.00 in0.0 mm
06:20 PM 24.6°F-4.1°C 11.5°F-11.4°C 57% Calm Calm -- 30.15 in1021.0 mb - 0.00 in0.0 mm 0.00 in0.0 mm
06:30 PM 24.3°F-4.3°C 10.8°F-11.8°C 56% Calm Calm 2.3 mph3.7 kmh 30.16 in1021.3 mb - 0.00 in0.0 mm 0.00 in0.0 mm
06:40 PM 23.6°F-4.7°C 11.0°F-11.7°C 58% Calm Calm -- 30.16 in1021.3 mb - 0.00 in0.0 mm 0.00 in0.0 mm
06:50 PM 23.0°F-5.0°C 11.2°F-11.6°C 60% Calm Calm -- 30.17 in1021.7 mb - 0.00 in0.0 mm 0.00 in0.0 mm
07:00 PM 22.5°F-5.3°C 9.9°F-12.3°C 58% Calm Calm -- 30.17 in1021.7 mb - 0.00 in0.0 mm 0.00 in0.0 mm
07:10 PM 21.6°F-5.8°C 10.5°F-11.9°C 62% Calm Calm -- 30.17 in1021.7 mb - 0.00 in0.0 mm 0.00 in0.0 mm
07:20 PM 21.1°F-6.1°C 10.1°F-12.2°C 62% Calm Calm -- 30.17 in1021.7 mb - 0.00 in0.0 mm 0.00 in0.0 mm
07:30 PM 20.9°F-6.2°C 10.9°F-11.7°C 65% Calm Calm -- 30.18 in1022.0 mb - 0.00 in0.0 mm 0.00 in0.0 mm
07:40 PM 20.5°F-6.4°C 10.2°F-12.1°C 64% Calm Calm -- 30.17 in1021.7 mb - 0.00 in0.0 mm 0.00 in0.0 mm
07:50 PM 19.6°F-6.9°C 10.4°F-12.0°C 67% Calm Calm -- 30.18 in1022.0 mb - 0.00 in0.0 mm 0.00 in0.0 mm
08:00 PM 18.7°F-7.4°C 9.6°F-12.4°C 67% Calm Calm -- 30.18 in1022.0 mb - 0.00 in0.0 mm 0.00 in0.0 mm
08:10 PM 17.9°F-7.8°C 9.1°F-12.7°C 68% Calm Calm -- 30.18 in1022.0 mb - 0.00 in0.0 mm 0.00 in0.0 mm
08:20 PM 17.3°F-8.2°C 9.2°F-12.7°C 70% Calm Calm -- 30.18 in1022.0 mb - 0.00 in0.0 mm 0.00 in0.0 mm
08:30 PM 16.8°F-8.4°C 8.4°F-13.1°C 69% Calm Calm -- 30.19 in1022.4 mb - 0.00 in0.0 mm 0.00 in0.0 mm
08:40 PM 16.2°F-8.8°C 8.7°F-12.9°C 72% Calm Calm -- 30.19 in1022.4 mb - 0.00 in0.0 mm 0.00 in0.0 mm
08:50 PM 15.4°F-9.2°C 8.0°F-13.3°C 72% Calm Calm -- 30.20 in1022.7 mb - 0.00 in0.0 mm 0.00 in0.0 mm
09:00 PM 15.0°F-9.4°C 7.9°F-13.4°C 73% Calm Calm -- 30.20 in1022.7 mb - 0.00 in0.0 mm 0.00 in0.0 mm
09:10 PM 14.6°F-9.7°C 8.4°F-13.1°C 76% Calm Calm -- 30.20 in1022.7 mb - 0.00 in0.0 mm 0.00 in0.0 mm
09:20 PM 13.9°F-10.1°C 8.1°F-13.3°C 77% Calm Calm -- 30.20 in1022.7 mb - 0.00 in0.0 mm 0.00 in0.0 mm
09:30 PM 13.5°F-10.3°C 7.3°F-13.7°C 76% Calm Calm -- 30.20 in1022.7 mb - 0.00 in0.0 mm 0.00 in0.0 mm
09:40 PM 12.9°F-10.6°C 7.0°F-13.9°C 77% Calm Calm -- 30.20 in1022.7 mb - 0.00 in0.0 mm 0.00 in0.0 mm
09:50 PM 12.6°F-10.8°C 6.5°F-14.2°C 76% Calm Calm -- 30.21 in1023.0 mb - 0.00 in0.0 mm 0.00 in0.0 mm
10:00 PM 12.2°F-11.0°C 6.4°F-14.2°C 77% Calm Calm -- 30.21 in1023.0 mb - 0.00 in0.0 mm 0.00 in0.0 mm
10:10 PM 11.8°F-11.2°C 6.3°F-14.3°C 78% Calm Calm -- 30.21 in1023.0 mb - 0.00 in0.0 mm 0.00 in0.0 mm
10:20 PM 11.4°F-11.4°C 5.9°F-14.5°C 78% Calm Calm -- 30.21 in1023.0 mb - 0.00 in0.0 mm 0.00 in0.0 mm
10:30 PM 11.1°F-11.6°C 5.9°F-14.5°C 79% Calm Calm -- 30.21 in1023.0 mb - 0.00 in0.0 mm 0.00 in0.0 mm
10:40 PM 11.0°F-11.7°C 5.5°F-14.7°C 78% Calm Calm -- 30.21 in1023.0 mb - 0.00 in0.0 mm 0.00 in0.0 mm
10:50 PM 10.9°F-11.7°C 5.4°F-14.8°C 78% Calm Calm -- 30.21 in1023.0 mb - 0.00 in0.0 mm 0.00 in0.0 mm
11:00 PM 10.7°F-11.8°C 4.9°F-15.1°C 77% Calm Calm -- 30.22 in1023.4 mb - 0.00 in0.0 mm 0.00 in0.0 mm
11:10 PM 10.4°F-12.0°C 4.6°F-15.2°C 77% Calm Calm -- 30.22 in1023.4 mb - 0.00 in0.0 mm 0.00 in0.0 mm
11:20 PM 10.2°F-12.1°C 4.4°F-15.3°C 77% Calm Calm -- 30.23 in1023.7 mb - 0.00 in0.0 mm 0.00 in0.0 mm
11:30 PM 9.8°F-12.3°C 4.4°F-15.3°C 78% Calm Calm -- 30.23 in1023.7 mb - 0.00 in0.0 mm 0.00 in0.0 mm
11:40 PM 9.5°F-12.5°C 4.3°F-15.4°C 79% Calm Calm -- 30.23 in1023.7 mb - 0.00 in0.0 mm 0.00 in0.0 mm
11:50 PM 9.2°F-12.7°C 4.0°F-15.6°C 79% Calm Calm -- 30.23 in1023.7 mb - 0.00 in0.0 mm 0.00 in0.0 mm